Time;durP1;ratioP1;P1;durP2;ratioP2;P2;SDS_P1;SDS_P2;PMS_P1;PMS_P2;Temp;Humidity;BMP_temperature;BMP_pressure;BME280_temperature;BME280_humidity;BME280_pressure;Samples;Min_cycle;Max_cycle;Signal;HPM_P1;HPM_P2
2023/08/07 00:01:12;;;;;;;0.90;0.40;;;14.80;99.90;;;;;;5056186;28;20037;-63
2023/08/07 00:03:38;;;;;;;2.47;1.08;;;14.80;99.90;;;;;;5052064;28;20563;-63
2023/08/07 00:06:04;;;;;;;1.90;0.68;;;14.70;99.90;;;;;;5051348;28;20045;-63
2023/08/07 00:08:31;;;;;;;1.45;0.70;;;14.70;99.90;;;;;;5051892;28;20130;-63
2023/08/07 00:11:10;;;;;;;2.58;0.73;;;14.70;99.90;;;;;;5053120;28;20469;-63
2023/08/07 00:13:36;;;;;;;2.27;1.10;;;14.70;99.90;;;;;;5051075;28;20045;-63
2023/08/07 00:16:02;;;;;;;1.52;0.80;;;14.70;99.90;;;;;;5053106;28;20406;-63
2023/08/07 00:18:29;;;;;;;1.77;0.68;;;14.70;99.90;;;;;;5051585;28;20041;-63
2023/08/07 00:20:55;;;;;;;1.10;0.60;;;14.70;99.90;;;;;;5050786;28;20051;-63
2023/08/07 00:23:21;;;;;;;2.10;0.80;;;14.70;99.90;;;;;;5051583;28;20040;-63
2023/08/07 00:25:56;;;;;;;5.78;0.68;;;14.70;99.90;;;;;;5052114;28;20041;-63
2023/08/07 00:28:21;;;;;;;1.27;0.70;;;14.70;99.90;;;;;;5070944;28;20123;-62
2023/08/07 00:30:47;;;;;;;0.98;0.32;;;14.70;99.90;;;;;;5067767;28;20423;-63
2023/08/07 00:33:13;;;;;;;0.52;0.38;;;14.60;99.90;;;;;;5052267;28;20033;-62
2023/08/07 00:35:39;;;;;;;0.73;0.60;;;14.60;99.90;;;;;;5051241;28;20269;-62
2023/08/07 00:38:04;;;;;;;0.80;0.40;;;14.60;99.90;;;;;;5051308;28;20119;-62
2023/08/07 00:40:38;;;;;;;1.33;0.55;;;14.60;99.90;;;;;;5052125;28;20445;-62
2023/08/07 00:43:04;;;;;;;3.50;0.52;;;14.60;99.90;;;;;;5051149;28;20048;-62
2023/08/07 00:45:34;;;;;;;1.05;0.43;;;14.60;99.90;;;;;;5052610;28;20045;-62
2023/08/07 00:48:00;;;;;;;0.50;0.30;;;14.60;99.90;;;;;;5050799;28;20067;-62
2023/08/07 00:50:26;;;;;;;2.17;0.50;;;14.50;99.90;;;;;;5052330;28;20040;-62
2023/08/07 00:52:59;;;;;;;2.88;0.52;;;14.50;99.90;;;;;;5050771;28;20515;-62
2023/08/07 00:55:25;;;;;;;1.40;0.75;;;14.40;99.90;;;;;;5051782;28;20045;-62
2023/08/07 00:57:51;;;;;;;0.98;0.52;;;14.40;99.90;;;;;;5052130;28;20044;-62
2023/08/07 01:00:17;;;;;;;1.65;0.75;;;14.40;99.90;;;;;;5065040;28;20135;-62
2023/08/07 01:02:43;;;;;;;5.05;1.05;;;14.40;99.90;;;;;;5070188;28;20078;-62
2023/08/07 01:05:09;;;;;;;0.43;0.22;;;14.40;99.90;;;;;;5072319;28;20041;-62
2023/08/07 01:07:35;;;;;;;0.65;0.40;;;14.30;99.90;;;;;;5072070;28;20508;-62
2023/08/07 01:10:03;;;;;;;1.27;0.80;;;14.30;99.90;;;;;;5071494;28;20427;-62
2023/08/07 01:12:33;;;;;;;1.50;0.80;;;14.40;99.90;;;;;;5070922;28;20112;-62
2023/08/07 01:15:06;;;;;;;0.80;0.43;;;14.40;99.90;;;;;;5071413;28;20044;-62
2023/08/07 01:17:34;;;;;;;0.73;0.28;;;14.40;99.90;;;;;;5070611;28;20153;-62
2023/08/07 01:20:01;;;;;;;0.68;0.50;;;14.40;99.90;;;;;;5070516;28;20048;-62
2023/08/07 01:22:27;;;;;;;1.70;0.75;;;14.40;99.90;;;;;;5064602;28;20037;-62
2023/08/07 01:24:53;;;;;;;3.20;0.47;;;14.40;99.90;;;;;;5030521;28;20048;-62
2023/08/07 01:27:19;;;;;;;2.15;0.47;;;14.40;99.90;;;;;;5037680;28;20103;-62
2023/08/07 01:30:21;;;;;;;4.30;0.50;;;14.40;99.90;;;;;;5049920;28;20041;-62
2023/08/07 01:32:56;;;;;;;1.50;0.40;;;14.30;99.90;;;;;;5049571;28;20052;-62
2023/08/07 01:35:29;;;;;;;1.02;0.63;;;14.30;99.90;;;;;;5050305;28;20060;-62
2023/08/07 01:37:57;;;;;;;2.25;0.77;;;14.40;99.90;;;;;;5049564;28;20041;-62
2023/08/07 01:40:23;;;;;;;1.23;0.73;;;14.40;99.90;;;;;;5051351;28;20083;-62
2023/08/07 01:42:49;;;;;;;0.93;0.50;;;14.30;99.90;;;;;;5049406;28;20049;-62
2023/08/07 01:45:25;;;;;;;1.20;0.30;;;14.30;99.90;;;;;;5051659;28;20037;-63
2023/08/07 01:47:52;;;;;;;0.43;0.28;;;14.30;99.90;;;;;;5050015;28;20490;-62
2023/08/07 01:50:19;;;;;;;5.68;0.45;;;14.30;99.90;;;;;;5050652;28;20477;-62
2023/08/07 01:52:46;;;;;;;1.73;0.60;;;14.20;99.90;;;;;;5049619;28;20466;-62
2023/08/07 01:55:13;;;;;;;0.57;0.43;;;14.20;99.90;;;;;;5050101;28;20041;-62
2023/08/07 01:57:39;;;;;;;2.40;0.35;;;14.20;99.90;;;;;;5049215;28;20103;-62
2023/08/07 02:00:06;;;;;;;0.70;0.20;;;14.10;99.90;;;;;;5062286;28;20120;-62
2023/08/07 02:02:31;;;;;;;1.30;0.40;;;14.10;99.90;;;;;;5069969;28;20105;-62
2023/08/07 02:04:57;;;;;;;1.40;0.20;;;14.10;99.90;;;;;;5069271;28;20572;-62
2023/08/07 02:07:23;;;;;;;0.55;0.30;;;14.10;99.90;;;;;;5052942;28;20036;-62
2023/08/07 02:09:49;;;;;;;2.03;0.70;;;14.10;99.90;;;;;;5071016;28;20091;-62
2023/08/07 02:12:15;;;;;;;0.95;0.32;;;14.00;99.90;;;;;;5068975;28;20052;-62
2023/08/07 02:14:41;;;;;;;2.10;0.52;;;14.00;99.90;;;;;;5069742;28;20099;-62
2023/08/07 02:17:06;;;;;;;0.70;0.35;;;14.00;99.90;;;;;;5069350;28;20437;-62
2023/08/07 02:19:32;;;;;;;0.85;0.47;;;14.00;99.90;;;;;;5058511;28;20115;-62
2023/08/07 02:21:58;;;;;;;0.63;0.55;;;14.00;99.90;;;;;;5032930;28;20417;-62
2023/08/07 02:24:24;;;;;;;0.30;0.20;;;13.90;99.90;;;;;;5046327;28;20098;-62
2023/08/07 02:26:49;;;;;;;0.65;0.30;;;14.00;99.90;;;;;;5048869;28;20455;-62
2023/08/07 02:29:15;;;;;;;0.57;0.17;;;13.90;99.90;;;;;;5049404;28;20114;-62
2023/08/07 02:31:41;;;;;;;0.40;0.20;;;13.80;99.90;;;;;;5032144;28;20125;-62
2023/08/07 02:34:07;;;;;;;0.20;0.20;;;13.80;99.90;;;;;;5049272;28;20041;-62
2023/08/07 02:36:33;;;;;;;4.82;0.50;;;13.80;99.90;;;;;;5049153;28;20102;-62
2023/08/07 02:38:58;;;;;;;1.20;0.57;;;13.80;99.90;;;;;;5048559;28;20045;-62
2023/08/07 02:41:24;;;;;;;1.00;0.30;;;13.80;99.90;;;;;;5032987;28;20043;-62
2023/08/07 02:43:50;;;;;;;1.10;0.22;;;13.80;99.90;;;;;;5032649;28;20563;-62
2023/08/07 02:46:15;;;;;;;0.47;0.30;;;13.80;99.90;;;;;;5048289;28;20072;-62
2023/08/07 02:48:43;;;;;;;2.03;0.40;;;13.80;99.90;;;;;;5048976;28;20049;-62
2023/08/07 02:51:09;;;;;;;0.52;0.40;;;13.80;99.90;;;;;;5048974;28;20051;-62
2023/08/07 02:53:35;;;;;;;3.83;0.35;;;13.70;99.90;;;;;;5049524;28;20053;-62
2023/08/07 02:56:01;;;;;;;0.75;0.50;;;13.60;99.90;;;;;;5032631;28;20053;-62
2023/08/07 02:58:27;;;;;;;1.08;0.43;;;13.60;99.90;;;;;;5050420;28;20653;-62
2023/08/07 03:00:52;;;;;;;0.30;0.20;;;13.60;99.90;;;;;;5067373;28;20485;-62
2023/08/07 03:03:18;;;;;;;1.15;0.28;;;13.70;99.90;;;;;;5070426;28;20040;-62
2023/08/07 03:05:51;;;;;;;4.88;0.68;;;13.70;99.90;;;;;;5068968;28;20043;-62
2023/08/07 03:08:17;;;;;;;1.55;0.40;;;13.60;99.90;;;;;;5069774;28;20210;-62
2023/08/07 03:10:53;;;;;;;1.05;0.38;;;13.60;99.90;;;;;;5069117;28;20072;-62
2023/08/07 03:13:19;;;;;;;0.88;0.30;;;13.70;99.90;;;;;;5069175;28;20109;-62
2023/08/07 03:15:44;;;;;;;3.28;0.68;;;13.80;99.90;;;;;;5058327;28;20116;-63
2023/08/07 03:18:10;;;;;;;3.42;0.50;;;13.80;99.90;;;;;;5050045;28;20084;-63
2023/08/07 03:20:45;;;;;;;0.88;0.57;;;13.80;99.90;;;;;;5048791;28;20041;-63
2023/08/07 03:23:11;;;;;;;0.75;0.50;;;13.90;99.90;;;;;;5048785;28;20041;-66
2023/08/07 03:25:46;;;;;;;0.77;0.30;;;14.00;99.90;;;;;;5048801;28;20041;-66
2023/08/07 03:28:12;;;;;;;2.33;0.60;;;14.00;99.90;;;;;;5049577;28;20041;-65
2023/08/07 03:30:38;;;;;;;1.05;0.52;;;14.10;99.90;;;;;;5050091;28;20377;-65
2023/08/07 03:33:04;;;;;;;1.00;0.40;;;14.10;99.90;;;;;;5048819;28;20195;-66
2023/08/07 03:35:33;;;;;;;2.95;0.40;;;14.10;99.90;;;;;;5049574;28;20126;-66
2023/08/07 03:37:58;;;;;;;1.40;0.43;;;14.10;99.90;;;;;;5032224;28;20051;-66
2023/08/07 03:40:24;;;;;;;1.60;0.52;;;14.10;99.90;;;;;;5048639;28;20041;-66
2023/08/07 03:42:50;;;;;;;0.85;0.60;;;14.10;99.90;;;;;;5048330;28;20088;-66
2023/08/07 03:45:16;;;;;;;2.15;0.57;;;14.20;99.90;;;;;;5049840;28;20037;-66
2023/08/07 03:47:41;;;;;;;2.65;0.50;;;14.20;99.90;;;;;;5048736;28;20477;-65
2023/08/07 03:50:07;;;;;;;3.35;1.25;;;14.20;99.90;;;;;;5048021;28;20401;-66
2023/08/07 03:52:33;;;;;;;0.93;0.63;;;14.20;99.90;;;;;;5049645;28;20106;-67
2023/08/07 03:54:59;;;;;;;5.90;0.98;;;14.20;99.90;;;;;;5050200;28;20052;-66
2023/08/07 03:57:25;;;;;;;1.35;0.65;;;14.20;99.90;;;;;;5071905;28;20044;-66
2023/08/07 03:59:51;;;;;;;1.98;0.70;;;14.30;99.90;;;;;;5071791;28;20040;-66
2023/08/07 04:02:16;;;;;;;1.55;0.88;;;14.30;99.90;;;;;;5072311;28;20047;-66
2023/08/07 04:04:42;;;;;;;5.88;1.13;;;14.20;99.90;;;;;;5071550;28;20036;-66
2023/08/07 04:07:08;;;;;;;1.27;1.00;;;14.30;99.90;;;;;;5072222;28;20435;-65
2023/08/07 04:09:34;;;;;;;2.15;0.82;;;14.30;99.90;;;;;;5071932;28;20124;-65
2023/08/07 04:11:59;;;;;;;1.85;0.47;;;14.30;99.90;;;;;;5050922;28;20045;-65
2023/08/07 04:14:26;;;;;;;1.13;0.52;;;14.30;99.90;;;;;;5032037;28;20076;-64
2023/08/07 04:16:52;;;;;;;5.68;0.80;;;14.30;99.90;;;;;;5045001;28;20045;-64
2023/08/07 04:19:17;;;;;;;3.47;0.63;;;14.30;99.90;;;;;;5053098;28;20063;-64
2023/08/07 04:21:43;;;;;;;1.05;0.40;;;14.30;99.90;;;;;;5035149;28;20048;-64
2023/08/07 04:24:10;;;;;;;1.58;0.80;;;14.20;99.90;;;;;;5050916;28;20128;-64
2023/08/07 04:26:37;;;;;;;1.15;0.88;;;14.20;99.90;;;;;;5051839;28;20492;-64
2023/08/07 04:29:03;;;;;;;3.97;1.42;;;14.20;99.90;;;;;;5052756;28;20037;-64
2023/08/07 04:31:32;;;;;;;2.35;1.05;;;14.30;99.90;;;;;;5051184;28;20047;-64
2023/08/07 04:33:59;;;;;;;2.30;0.60;;;14.30;99.90;;;;;;5051701;28;20052;-62
2023/08/07 04:36:24;;;;;;;0.95;0.43;;;14.30;99.90;;;;;;5051465;28;20049;-62
2023/08/07 04:38:50;;;;;;;1.77;0.77;;;14.30;99.90;;;;;;5051880;28;20178;-64
2023/08/07 04:41:16;;;;;;;2.35;0.95;;;14.30;99.90;;;;;;5051197;28;20098;-64
2023/08/07 04:43:46;;;;;;;0.65;0.50;;;14.30;99.90;;;;;;5051143;28;20068;-63
2023/08/07 04:46:14;;;;;;;4.45;0.85;;;14.30;99.90;;;;;;5050689;28;20106;-62
2023/08/07 04:48:40;;;;;;;1.60;0.65;;;14.40;99.90;;;;;;5051117;28;20049;-62
2023/08/07 04:51:06;;;;;;;1.08;0.38;;;14.40;99.90;;;;;;5051061;28;20119;-62
2023/08/07 04:53:32;;;;;;;1.38;0.68;;;14.30;99.90;;;;;;5069672;28;20139;-62
2023/08/07 04:55:59;;;;;;;2.22;0.73;;;14.40;99.90;;;;;;5072325;28;20138;-63
2023/08/07 04:58:25;;;;;;;0.68;0.43;;;14.40;99.90;;;;;;5070902;28;20124;-62
2023/08/07 05:00:58;;;;;;;4.53;0.50;;;14.30;99.90;;;;;;5071483;28;20120;-62
2023/08/07 05:03:24;;;;;;;1.23;0.63;;;14.30;99.90;;;;;;5071123;28;20055;-62
2023/08/07 05:05:50;;;;;;;1.25;0.50;;;14.20;99.90;;;;;;5070237;28;20044;-62
2023/08/07 05:08:17;;;;;;;2.45;0.63;;;14.20;99.90;;;;;;5050228;28;20144;-62
2023/08/07 05:10:42;;;;;;;2.58;0.80;;;14.10;99.90;;;;;;5032028;28;20038;-62
2023/08/07 05:13:08;;;;;;;1.63;0.50;;;14.10;99.90;;;;;;5044163;28;20539;-62
2023/08/07 05:15:34;;;;;;;4.53;0.80;;;14.10;99.90;;;;;;5050654;28;20132;-61
2023/08/07 05:18:00;;;;;;;1.77;0.70;;;14.00;99.90;;;;;;5033726;28;20045;-62
2023/08/07 05:20:26;;;;;;;3.33;0.70;;;14.00;99.90;;;;;;5050053;28;20040;-62
2023/08/07 05:22:51;;;;;;;1.83;0.47;;;14.10;99.90;;;;;;5051725;28;20029;-62
2023/08/07 05:25:18;;;;;;;1.45;0.50;;;14.10;99.90;;;;;;5051730;28;20370;-62
2023/08/07 05:27:45;;;;;;;1.55;0.90;;;14.20;99.90;;;;;;5049889;28;20059;-61
2023/08/07 05:30:12;;;;;;;2.08;0.50;;;14.30;99.90;;;;;;5050480;28;20086;-63
2023/08/07 05:32:38;;;;;;;2.35;0.30;;;14.40;99.90;;;;;;5046442;28;20053;-61
2023/08/07 05:35:05;;;;;;;2.45;0.90;;;14.50;99.90;;;;;;5049776;28;20386;-61
2023/08/07 05:37:31;;;;;;;3.40;1.08;;;14.60;99.90;;;;;;5047511;28;20041;-62
2023/08/07 05:39:57;;;;;;;3.17;1.00;;;14.60;99.90;;;;;;5050253;28;20069;-62
2023/08/07 05:42:23;;;;;;;1.38;0.70;;;14.60;99.90;;;;;;5050764;28;20107;-62
2023/08/07 05:44:49;;;;;;;5.65;1.08;;;14.60;99.90;;;;;;5049694;28;20171;-61
2023/08/07 05:47:15;;;;;;;6.13;1.23;;;14.60;99.90;;;;;;5041011;28;20053;-61
2023/08/07 05:49:41;;;;;;;2.00;0.77;;;14.60;99.90;;;;;;5063137;28;20447;-62
2023/08/07 05:52:07;;;;;;;4.20;1.02;;;14.60;99.90;;;;;;5051475;28;20110;-62
2023/08/07 05:54:33;;;;;;;2.15;0.93;;;14.60;99.90;;;;;;5049252;28;20061;-61
2023/08/07 05:56:59;;;;;;;6.60;1.52;;;14.60;99.90;;;;;;5049269;28;20064;-61
2023/08/07 05:59:25;;;;;;;8.10;1.17;;;14.70;99.90;;;;;;5056393;28;20438;-62
2023/08/07 06:01:51;;;;;;;4.75;1.05;;;14.70;99.90;;;;;;5069007;28;20131;-61
2023/08/07 06:04:21;;;;;;;4.72;1.27;;;14.80;99.90;;;;;;5053202;28;20045;-61
2023/08/07 06:06:47;;;;;;;1.23;0.63;;;14.90;99.90;;;;;;5030875;28;20038;-61
2023/08/07 06:09:15;;;;;;;4.47;0.73;;;14.90;99.90;;;;;;5042659;28;20032;-61
2023/08/07 06:11:41;;;;;;;0.90;0.47;;;15.00;99.90;;;;;;5049336;28;20053;-61
2023/08/07 06:14:07;;;;;;;11.98;1.52;;;15.10;99.90;;;;;;5051030;28;20048;-61
2023/08/07 06:16:33;;;;;;;1.63;0.73;;;15.10;99.90;;;;;;5049092;28;20032;-61
2023/08/07 06:19:03;;;;;;;3.13;0.93;;;15.00;99.90;;;;;;5049048;28;20111;-61
2023/08/07 06:21:29;;;;;;;1.60;0.60;;;15.00;99.90;;;;;;5049095;28;20045;-61
2023/08/07 06:23:55;;;;;;;3.55;0.95;;;14.90;99.90;;;;;;5049733;28;20116;-61
2023/08/07 06:26:21;;;;;;;2.25;0.77;;;14.90;99.90;;;;;;5050477;28;20501;-61
2023/08/07 06:28:46;;;;;;;2.97;1.00;;;14.90;99.90;;;;;;5049313;28;20090;-61
2023/08/07 06:31:12;;;;;;;1.55;0.32;;;14.90;99.90;;;;;;5048823;28;20389;-62
2023/08/07 06:33:39;;;;;;;2.05;1.25;;;14.90;99.90;;;;;;5049207;28;20048;-61
2023/08/07 06:36:06;;;;;;;1.67;0.60;;;15.00;99.90;;;;;;5050223;28;20033;-62
2023/08/07 06:38:32;;;;;;;0.90;0.40;;;14.90;99.90;;;;;;5049696;28;20083;-62
2023/08/07 06:40:57;;;;;;;3.60;0.50;;;14.80;99.90;;;;;;5049980;28;20072;-62
2023/08/07 06:43:23;;;;;;;0.73;0.40;;;14.80;99.90;;;;;;5048074;28;20037;-61
2023/08/07 06:45:56;;;;;;;0.82;0.40;;;14.80;99.90;;;;;;5063604;28;20055;-62
2023/08/07 06:48:22;;;;;;;4.07;1.75;;;14.80;99.90;;;;;;5069069;28;20051;-61
2023/08/07 06:50:51;;;;;;;1.33;0.50;;;14.80;99.90;;;;;;5067310;28;20051;-62
2023/08/07 06:53:17;;;;;;;5.23;0.97;;;14.90;99.90;;;;;;5066838;28;20059;-61
2023/08/07 06:55:43;;;;;;;1.73;0.60;;;14.90;99.90;;;;;;5030900;28;20045;-62
2023/08/07 06:58:10;;;;;;;4.63;0.68;;;14.90;99.90;;;;;;5029283;28;20068;-61
2023/08/07 07:00:36;;;;;;;0.73;0.38;;;14.90;99.90;;;;;;5040788;28;20037;-62
2023/08/07 07:03:03;;;;;;;1.40;0.60;;;14.90;99.90;;;;;;5049903;28;20044;-62
2023/08/07 07:05:30;;;;;;;3.03;1.05;;;14.90;99.90;;;;;;5047199;28;20037;-61
2023/08/07 07:07:57;;;;;;;1.90;0.90;;;15.00;99.90;;;;;;5049413;28;20059;-62
2023/08/07 07:10:22;;;;;;;1.83;0.52;;;15.10;99.90;;;;;;5049062;28;20390;-62
2023/08/07 07:12:48;;;;;;;1.30;0.90;;;15.20;99.90;;;;;;5039903;28;20112;-61
2023/08/07 07:15:15;;;;;;;4.30;0.57;;;15.20;99.90;;;;;;5028075;28;20045;-62
2023/08/07 07:17:41;;;;;;;6.45;0.90;;;15.30;99.90;;;;;;5030882;28;20453;-62
2023/08/07 07:20:09;;;;;;;2.47;1.23;;;15.30;99.90;;;;;;5028231;28;20042;-61
2023/08/07 07:22:35;;;;;;;0.73;0.30;;;15.30;99.90;;;;;;5034909;28;20042;-61
2023/08/07 07:25:01;;;;;;;1.52;0.63;;;15.40;99.90;;;;;;5067554;28;20044;-61
2023/08/07 07:27:27;;;;;;;0.75;0.60;;;15.30;99.90;;;;;;5068115;28;20098;-62
2023/08/07 07:29:52;;;;;;;2.70;1.20;;;15.20;99.90;;;;;;5041199;28;20041;-61
2023/08/07 07:32:18;;;;;;;1.65;0.88;;;15.10;99.90;;;;;;5052677;28;20060;-61
2023/08/07 07:34:44;;;;;;;1.65;0.60;;;15.00;99.90;;;;;;5035276;28;20652;-60
2023/08/07 07:37:10;;;;;;;2.53;0.82;;;15.00;99.90;;;;;;5037334;28;20132;-61
2023/08/07 07:39:36;;;;;;;5.20;0.93;;;15.40;99.90;;;;;;5032465;28;20033;-61
2023/08/07 07:42:04;;;;;;;0.70;0.50;;;15.70;99.90;;;;;;5033709;28;20037;-62
2023/08/07 07:44:31;;;;;;;1.73;0.88;;;15.90;99.90;;;;;;5015916;28;20047;-62
2023/08/07 07:46:56;;;;;;;1.75;0.50;;;16.00;99.90;;;;;;5031552;28;20056;-61
2023/08/07 07:49:22;;;;;;;1.88;1.13;;;16.30;99.90;;;;;;5032298;28;20053;-62
2023/08/07 07:51:49;;;;;;;1.75;0.63;;;16.60;99.90;;;;;;5032270;28;20057;-62
2023/08/07 07:54:15;;;;;;;2.40;0.82;;;16.80;99.90;;;;;;5031328;28;20521;-63
2023/08/07 07:56:42;;;;;;;2.15;0.70;;;16.90;99.90;;;;;;5038337;28;20080;-62
2023/08/07 07:59:08;;;;;;;2.33;0.80;;;17.00;99.90;;;;;;5055313;28;20044;-61
2023/08/07 08:01:33;;;;;;;4.07;0.88;;;17.00;99.90;;;;;;5058768;28;20037;-62
2023/08/07 08:03:59;;;;;;;1.10;0.65;;;16.80;99.90;;;;;;5050912;28;20081;-63
2023/08/07 08:06:25;;;;;;;1.98;0.52;;;16.80;99.90;;;;;;5051896;28;20527;-63
2023/08/07 08:08:51;;;;;;;5.30;0.77;;;16.70;99.90;;;;;;5050555;28;20067;-63
2023/08/07 08:11:17;;;;;;;1.83;0.50;;;16.40;99.90;;;;;;5053119;28;20049;-60
2023/08/07 08:13:42;;;;;;;4.57;0.95;;;16.00;99.90;;;;;;5035196;28;20037;-60
2023/08/07 08:16:08;;;;;;;3.33;0.52;;;15.60;99.90;;;;;;5031063;28;20045;-60
2023/08/07 08:18:34;;;;;;;4.22;0.90;;;15.30;99.90;;;;;;5030947;28;20460;-61
2023/08/07 08:21:00;;;;;;;1.00;0.60;;;15.10;99.90;;;;;;5034104;28;20484;-60
2023/08/07 08:23:26;;;;;;;2.97;1.73;;;14.90;99.90;;;;;;5029839;28;20045;-61
2023/08/07 08:25:52;;;;;;;2.58;0.73;;;14.80;99.90;;;;;;5032970;28;20505;-61
2023/08/07 08:28:18;;;;;;;2.45;0.60;;;14.80;99.90;;;;;;5051382;28;20044;-60
2023/08/07 08:30:44;;;;;;;3.78;0.93;;;14.60;99.90;;;;;;5049461;28;20041;-61
2023/08/07 08:33:12;;;;;;;1.92;0.60;;;14.60;99.90;;;;;;5050077;28;20052;-60
2023/08/07 08:35:39;;;;;;;2.67;0.98;;;14.60;99.90;;;;;;5049479;28;20061;-60
2023/08/07 08:38:04;;;;;;;1.40;0.70;;;14.60;99.90;;;;;;5050035;28;20434;-61
2023/08/07 08:40:34;;;;;;;3.13;1.65;;;14.70;99.90;;;;;;5050292;28;20048;-60
2023/08/07 08:43:00;;;;;;;;;;;15.00;99.90;;;;;;5049994;28;20400;-60
2023/08/07 08:45:27;;;;;;;0.65;0.38;;;15.60;99.90;;;;;;5033558;28;19924;-62
2023/08/07 08:48:01;;;;;;;1.38;0.80;;;16.20;99.90;;;;;;5051325;28;20080;-60
2023/08/07 08:50:28;;;;;;;3.30;0.98;;;16.80;99.90;;;;;;5049155;28;20052;-60
2023/08/07 08:52:56;;;;;;;2.80;1.08;;;17.30;99.90;;;;;;5050552;28;20057;-60
2023/08/07 08:55:22;;;;;;;1.17;0.50;;;17.50;99.90;;;;;;5051068;28;20107;-61
2023/08/07 08:57:49;;;;;;;3.03;0.70;;;17.60;99.90;;;;;;5048821;28;20051;-61
2023/08/07 09:00:20;;;;;;;1.63;0.73;;;17.60;99.90;;;;;;5064818;28;20043;-61
2023/08/07 09:02:50;;;;;;;1.27;0.68;;;17.70;99.90;;;;;;5069627;28;20040;-61
2023/08/07 09:05:18;;;;;;;0.40;0.35;;;18.00;99.90;;;;;;5070388;28;20389;-62
2023/08/07 09:07:46;;;;;;;2.30;0.70;;;18.20;99.90;;;;;;5070701;28;20161;-62
2023/08/07 09:10:13;;;;;;;2.60;1.10;;;18.40;99.90;;;;;;5069665;28;20074;-62
2023/08/07 09:12:52;;;;;;;0.93;0.47;;;18.70;99.90;;;;;;5068664;28;20044;-62
2023/08/07 09:15:20;;;;;;;0.80;0.52;;;19.10;99.90;;;;;;5050888;28;20036;-62
2023/08/07 09:17:46;;;;;;;0.80;0.55;;;19.40;99.90;;;;;;5068996;28;20040;-61
2023/08/07 09:20:14;;;;;;;4.10;1.13;;;19.30;99.90;;;;;;5071819;28;20080;-62
2023/08/07 09:22:41;;;;;;;1.42;0.65;;;18.90;99.90;;;;;;5064492;28;20509;-63
2023/08/07 09:25:09;;;;;;;10.40;1.27;;;18.30;99.90;;;;;;5050940;28;20040;-61
2023/08/07 09:27:39;;;;;;;5.78;1.15;;;17.80;99.90;;;;;;5050407;28;20080;-61
2023/08/07 09:30:09;;;;;;;;;;;17.50;99.90;;;;;;5049726;28;20052;-62
2023/08/07 09:32:36;;;;;;;2.63;1.00;;;17.40;99.90;;;;;;5051036;28;19916;-62
2023/08/07 09:35:06;;;;;;;1.42;1.15;;;17.40;99.90;;;;;;5049770;28;20588;-62
2023/08/07 09:37:32;;;;;;;2.70;0.90;;;17.50;99.90;;;;;;5049692;28;20048;-62
2023/08/07 09:40:01;;;;;;;1.60;0.98;;;17.60;99.90;;;;;;5048874;28;20041;-64
2023/08/07 09:42:31;;;;;;;1.23;0.63;;;18.00;99.90;;;;;;5049539;28;20473;-62
2023/08/07 09:44:56;;;;;;;3.28;0.60;;;18.50;99.90;;;;;;5049994;28;20041;-63
2023/08/07 09:47:22;;;;;;;5.38;0.88;;;18.70;99.90;;;;;;5049484;28;20049;-63
2023/08/07 09:49:53;;;;;;;4.05;0.98;;;19.00;99.90;;;;;;5043339;28;20091;-63
2023/08/07 09:52:19;;;;;;;1.17;0.77;;;19.10;99.90;;;;;;5049661;28;20492;-63
2023/08/07 09:54:45;;;;;;;4.47;0.95;;;18.80;99.90;;;;;;5050074;28;20507;-62
2023/08/07 09:57:11;;;;;;;0.73;0.60;;;18.50;99.90;;;;;;5046193;28;20037;-64
2023/08/07 09:59:37;;;;;;;1.42;0.70;;;18.40;99.90;;;;;;5030163;28;20048;-62
2023/08/07 10:02:04;;;;;;;2.83;0.63;;;18.30;99.90;;;;;;5070917;28;20032;-62
2023/08/07 10:04:31;;;;;;;3.53;0.60;;;18.30;99.90;;;;;;5069660;28;20170;-62
2023/08/07 10:06:58;;;;;;;1.52;0.38;;;18.70;99.90;;;;;;5069019;28;20048;-61
2023/08/07 10:09:26;;;;;;;1.45;0.75;;;18.90;99.90;;;;;;5070912;28;20234;-63
2023/08/07 10:11:52;;;;;;;2.47;0.70;;;18.80;99.90;;;;;;5062870;28;20037;-62
2023/08/07 10:14:18;;;;;;;1.38;0.90;;;18.40;99.90;;;;;;5049991;28;20524;-61
2023/08/07 10:16:45;;;;;;;1.50;0.70;;;18.10;99.90;;;;;;5050794;28;20086;-62
2023/08/07 10:19:12;;;;;;;7.03;0.82;;;17.90;99.90;;;;;;5049184;28;20037;-63
2023/08/07 10:21:42;;;;;;;6.50;0.60;;;17.90;99.90;;;;;;5048861;28;20493;-62
2023/08/07 10:24:11;;;;;;;1.50;0.52;;;18.00;99.90;;;;;;5043568;28;20044;-62
2023/08/07 10:26:44;;;;;;;3.22;0.68;;;18.30;99.90;;;;;;5029357;28;20527;-62
2023/08/07 10:29:34;;;;;;;2.13;0.77;;;18.60;99.90;;;;;;5028619;28;20061;-62
2023/08/07 10:32:15;;;;;;;1.42;0.50;;;19.00;99.90;;;;;;5029324;28;20033;-62
2023/08/07 10:35:37;;;;;;;0.93;0.30;;;19.40;99.90;;;;;;5014665;28;20163;-63
2023/08/07 10:38:11;;;;;;;1.08;0.60;;;19.60;99.90;;;;;;5028945;28;20106;-63
2023/08/07 10:40:58;;;;;;;4.35;0.85;;;19.80;99.90;;;;;;5030387;28;20168;-62
2023/08/07 10:43:25;;;;;;;1.85;0.63;;;19.90;99.90;;;;;;5028576;28;20128;-62
2023/08/07 10:45:51;;;;;;;1.92;0.30;;;19.90;99.90;;;;;;5040884;28;20095;-63
2023/08/07 10:48:21;;;;;;;1.40;0.82;;;19.70;99.90;;;;;;5049988;28;20493;-63
2023/08/07 10:51:00;;;;;;;0.50;0.32;;;19.30;99.90;;;;;;5047694;28;20049;-63
2023/08/07 10:53:46;;;;;;;2.40;0.47;;;19.00;99.90;;;;;;5032029;28;20057;-63
2023/08/07 10:56:52;;;;;;;1.45;0.45;;;19.00;99.90;;;;;;5048256;28;20059;-62
2023/08/07 10:59:21;;;;;;;1.35;0.22;;;19.10;99.90;;;;;;5058694;28;20079;-62
2023/08/07 11:01:57;;;;;;;0.68;0.32;;;19.00;99.90;;;;;;5070019;28;20045;-62
2023/08/07 11:04:26;;;;;;;1.02;0.38;;;18.70;99.90;;;;;;5069567;28;20045;-62
2023/08/07 11:06:55;;;;;;;4.80;0.85;;;18.40;99.90;;;;;;5072912;28;20082;-62
2023/08/07 11:09:23;;;;;;;;;;;18.30;99.90;;;;;;5056304;28;20037;-62
2023/08/07 11:11:52;;;;;;;1.70;0.60;;;18.50;99.90;;;;;;5053357;28;19978;-61
2023/08/07 11:14:20;;;;;;;1.25;0.50;;;18.90;99.90;;;;;;5053819;28;20040;-62
2023/08/07 11:16:48;;;;;;;2.35;0.60;;;19.20;99.90;;;;;;5052347;28;20049;-62
2023/08/07 11:19:16;;;;;;;0.82;0.25;;;19.50;99.90;;;;;;5051475;28;20049;-62
2023/08/07 11:21:43;;;;;;;1.17;0.30;;;19.80;99.90;;;;;;5052848;28;20075;-63
2023/08/07 11:24:14;;;;;;;1.52;0.73;;;19.90;99.90;;;;;;5051128;28;20045;-62
2023/08/07 11:26:42;;;;;;;1.45;0.65;;;19.90;99.90;;;;;;5052021;28;20048;-63
2023/08/07 11:29:09;;;;;;;2.00;0.45;;;19.60;99.90;;;;;;5053148;28;20056;-64
2023/08/07 11:31:35;;;;;;;0.60;0.20;;;19.30;99.90;;;;;;5032997;28;20494;-64
2023/08/07 11:34:02;;;;;;;0.63;0.30;;;19.10;99.90;;;;;;5032928;28;20037;-64
2023/08/07 11:36:29;;;;;;;1.15;0.50;;;18.90;99.90;;;;;;5031418;28;20102;-64
2023/08/07 11:38:55;;;;;;;1.48;0.40;;;18.70;99.90;;;;;;5030833;28;20486;-63
2023/08/07 11:41:22;;;;;;;0.55;0.30;;;18.60;99.90;;;;;;5036252;28;20045;-63
2023/08/07 11:43:48;;;;;;;3.40;0.63;;;18.50;99.90;;;;;;5052783;28;20527;-64
2023/08/07 11:46:15;;;;;;;1.77;0.40;;;18.60;99.90;;;;;;5051263;28;20041;-64
2023/08/07 11:48:43;;;;;;;1.60;0.30;;;18.70;99.90;;;;;;5052063;28;20040;-64
2023/08/07 11:51:10;;;;;;;1.38;0.85;;;18.70;99.90;;;;;;5035408;28;20045;-64
2023/08/07 11:53:38;;;;;;;1.45;0.52;;;18.50;99.90;;;;;;5052504;28;20107;-63
2023/08/07 11:56:09;;;;;;;1.73;0.40;;;18.20;99.90;;;;;;5051881;28;20040;-63
2023/08/07 11:58:40;;;;;;;1.50;0.38;;;18.00;99.90;;;;;;5052350;28;20067;-63
2023/08/07 12:01:11;;;;;;;1.92;0.50;;;17.80;99.90;;;;;;5073260;28;20558;-64
2023/08/07 12:03:38;;;;;;;3.80;0.45;;;17.70;99.90;;;;;;5066332;28;20094;-63
2023/08/07 12:06:06;;;;;;;0.90;0.60;;;17.60;99.90;;;;;;5052551;28;20037;-64
2023/08/07 12:08:42;;;;;;;4.93;1.17;;;17.50;99.90;;;;;;5051952;28;20107;-64
2023/08/07 12:11:11;;;;;;;3.42;0.77;;;17.30;99.90;;;;;;5052477;28;20060;-63
2023/08/07 12:13:38;;;;;;;3.72;1.05;;;17.20;99.90;;;;;;5051148;28;20040;-64
2023/08/07 12:16:19;;;;;;;3.28;0.75;;;17.30;99.90;;;;;;5050922;28;20048;-64
2023/08/07 12:19:03;;;;;;;2.67;0.52;;;17.40;99.90;;;;;;5050895;28;20138;-64
2023/08/07 12:21:48;;;;;;;1.88;0.60;;;17.60;99.90;;;;;;5050052;28;20565;-63
2023/08/07 12:24:20;;;;;;;4.85;0.88;;;17.70;99.90;;;;;;5050990;28;20085;-63
2023/08/07 12:26:45;;;;;;;1.77;0.60;;;17.50;99.90;;;;;;5050528;28;20048;-61
2023/08/07 12:29:11;;;;;;;1.27;0.63;;;17.30;99.90;;;;;;5052521;28;20045;-63
2023/08/07 12:31:37;;;;;;;1.30;0.50;;;16.90;99.90;;;;;;5051059;28;20041;-64
2023/08/07 12:34:02;;;;;;;2.42;0.40;;;16.50;99.90;;;;;;5033487;28;20044;-62
2023/08/07 12:36:28;;;;;;;1.05;0.50;;;16.20;99.90;;;;;;5051165;28;20056;-63
2023/08/07 12:38:54;;;;;;;1.00;0.50;;;16.00;99.90;;;;;;5035463;28;20056;-65
2023/08/07 12:41:20;;;;;;;1.63;0.73;;;15.90;99.90;;;;;;5030999;28;20045;-62
2023/08/07 12:43:46;;;;;;;1.98;0.63;;;15.90;99.90;;;;;;5050424;28;20128;-62
2023/08/07 12:46:12;;;;;;;0.93;0.52;;;15.90;99.90;;;;;;5052199;28;20039;-63
2023/08/07 12:48:37;;;;;;;2.95;0.60;;;15.90;99.90;;;;;;5051493;28;20455;-61
2023/08/07 12:51:03;;;;;;;2.63;0.70;;;15.90;99.90;;;;;;5050762;28;20049;-61